createdAt,value
2023-03-03T00:01:16.056Z,101942.59
2023-03-03T00:03:42.900Z,101946.06
2023-03-03T00:06:11.992Z,101949.00
2023-03-03T00:08:39.314Z,101944.72
2023-03-03T00:11:07.834Z,101940.94
2023-03-03T00:13:43.875Z,101950.38
2023-03-03T00:16:24.362Z,101951.94
2023-03-03T00:18:52.171Z,101957.38
2023-03-03T00:21:42.204Z,101957.38
2023-03-03T00:24:22.480Z,101956.97
2023-03-03T00:26:55.710Z,101962.94
2023-03-03T00:29:30.894Z,101962.69
2023-03-03T00:32:22.750Z,101955.63
2023-03-03T00:34:50.674Z,101958.84
2023-03-03T00:37:29.094Z,101965.84
2023-03-03T00:40:14.957Z,101959.41
2023-03-03T00:42:43.563Z,101962.38
2023-03-03T00:45:30.093Z,101967.22
2023-03-03T00:47:57.527Z,101972.22
2023-03-03T00:50:34.610Z,101957.09
2023-03-03T00:53:12.926Z,101964.69
2023-03-03T00:55:40.641Z,101955.50
2023-03-03T00:58:07.629Z,101958.84
2023-03-03T01:00:41.034Z,101956.38
2023-03-03T01:03:21.680Z,101957.94
2023-03-03T01:05:49.789Z,101957.63
2023-03-03T01:08:17.264Z,101948.44
2023-03-03T01:10:51.585Z,101953.38
2023-03-03T01:13:20.426Z,101965.50
2023-03-03T01:15:47.130Z,101965.50
2023-03-03T01:18:14.481Z,101969.97
2023-03-03T01:20:41.871Z,101962.41
2023-03-03T01:23:08.893Z,101962.19
2023-03-03T01:25:36.206Z,101963.28
2023-03-03T01:28:03.033Z,101970.72
2023-03-03T01:30:29.829Z,101955.94
2023-03-03T01:32:56.811Z,101970.16
2023-03-03T01:35:24.023Z,101958.84
2023-03-03T01:37:50.775Z,101969.13
2023-03-03T01:40:25.191Z,101973.94
2023-03-03T01:42:52.753Z,101974.44
2023-03-03T01:45:23.996Z,101972.19
2023-03-03T01:47:58.754Z,101979.00
2023-03-03T01:50:45.911Z,101988.72
2023-03-03T01:53:25.954Z,101981.81
2023-03-03T01:55:53.466Z,101977.63
2023-03-03T01:58:29.959Z,101978.28
2023-03-03T02:01:08.560Z,101966.44
2023-03-03T02:03:35.723Z,101973.81
2023-03-03T02:06:08.538Z,101973.41
2023-03-03T02:08:41.179Z,101974.00
2023-03-03T02:11:09.047Z,101969.09
2023-03-03T02:13:36.815Z,101963.19
2023-03-03T02:16:03.862Z,101959.94
2023-03-03T02:18:30.775Z,101962.16
2023-03-03T02:21:03.455Z,101969.69
2023-03-03T02:23:36.165Z,101958.31
2023-03-03T02:26:09.419Z,101955.06
2023-03-03T02:28:37.481Z,101953.31
2023-03-03T02:31:13.578Z,101958.47
2023-03-03T02:33:43.843Z,101964.41
2023-03-03T02:36:15.849Z,101960.84
2023-03-03T02:38:53.239Z,101956.03
2023-03-03T02:41:29.357Z,101962.47
2023-03-03T02:44:07.883Z,101957.59
2023-03-03T02:46:40.293Z,101972.38
2023-03-03T02:49:09.630Z,101965.91
2023-03-03T02:51:37.636Z,101969.16
2023-03-03T02:54:05.358Z,101959.72
2023-03-03T02:56:33.236Z,101966.03
2023-03-03T02:59:00.196Z,101965.16
2023-03-03T03:01:28.139Z,101965.09
2023-03-03T03:03:54.957Z,101968.06
2023-03-03T03:06:22.897Z,101974.84
2023-03-03T03:08:50.037Z,101966.97
2023-03-03T03:11:16.707Z,101964.84
2023-03-03T03:13:43.558Z,101969.06
2023-03-03T03:16:10.435Z,101971.00
2023-03-03T03:18:37.324Z,101967.91
2023-03-03T03:21:11.542Z,101964.59
2023-03-03T03:23:39.691Z,101971.47
2023-03-03T03:26:10.165Z,101970.03
2023-03-03T03:28:37.399Z,101967.09
2023-03-03T03:31:05.938Z,101965.81
2023-03-03T03:33:34.559Z,101966.44
2023-03-03T03:36:01.720Z,101975.16
2023-03-03T03:38:29.830Z,101977.38
2023-03-03T03:40:56.833Z,101979.97
2023-03-03T03:43:23.753Z,101986.28
2023-03-03T03:45:50.540Z,102000.53
2023-03-03T03:48:19.914Z,101992.59
2023-03-03T03:50:49.066Z,101998.78
2023-03-03T03:53:17.112Z,102002.97
2023-03-03T03:55:45.082Z,101989.91
2023-03-03T03:58:17.370Z,101995.28
2023-03-03T04:00:48.817Z,102001.25
2023-03-03T04:03:16.307Z,102001.19
2023-03-03T04:05:45.026Z,102004.63
2023-03-03T04:08:12.516Z,102002.13
2023-03-03T04:10:40.388Z,102008.38
2023-03-03T04:13:07.349Z,102011.81
2023-03-03T04:15:35.382Z,102007.94
2023-03-03T04:18:03.588Z,102006.78
2023-03-03T04:20:30.753Z,102014.22
2023-03-03T04:22:58.187Z,102018.38
2023-03-03T04:25:25.759Z,102016.41
2023-03-03T04:27:54.367Z,102016.63
2023-03-03T04:30:22.676Z,102013.00
2023-03-03T04:32:53.273Z,102014.47
2023-03-03T04:35:22.662Z,102013.50
2023-03-03T04:37:49.585Z,102013.34
2023-03-03T04:40:18.272Z,102009.09
2023-03-03T04:42:47.690Z,102022.16
2023-03-03T04:45:14.472Z,102024.69
2023-03-03T04:47:41.560Z,102029.13
2023-03-03T04:50:09.626Z,102013.53
2023-03-03T04:52:36.954Z,102025.25
2023-03-03T04:55:05.210Z,102023.56
2023-03-03T04:57:32.294Z,102032.06
2023-03-03T04:59:59.061Z,102030.50
2023-03-03T05:02:25.797Z,102033.97
2023-03-03T05:04:52.830Z,102042.59
2023-03-03T05:07:20.055Z,102038.81
2023-03-03T05:09:46.740Z,102037.50
2023-03-03T05:12:13.445Z,102043.81
2023-03-03T05:14:40.392Z,102041.63
2023-03-03T05:17:07.124Z,102041.72
2023-03-03T05:19:34.972Z,102051.41
2023-03-03T05:22:02.128Z,102043.16
2023-03-03T05:24:28.916Z,102047.59
2023-03-03T05:26:55.852Z,102050.50
2023-03-03T05:29:22.724Z,102054.91
2023-03-03T05:31:50.156Z,102052.66
2023-03-03T05:34:22.464Z,102054.44
2023-03-03T05:36:55.585Z,102059.31
2023-03-03T05:39:25.790Z,102046.78
2023-03-03T05:41:52.636Z,102045.63
2023-03-03T05:44:20.731Z,102060.81
2023-03-03T05:46:47.606Z,102050.03
2023-03-03T05:49:14.385Z,102051.88
2023-03-03T05:51:41.111Z,102061.53
2023-03-03T05:54:07.730Z,102057.66
2023-03-03T05:56:34.539Z,102064.50
2023-03-03T05:59:01.236Z,102056.03
2023-03-03T06:01:29.322Z,102063.38
2023-03-03T06:03:56.050Z,102065.47
2023-03-03T06:06:22.689Z,102063.41
2023-03-03T06:08:50.356Z,102072.38
2023-03-03T06:11:18.645Z,102066.78
2023-03-03T06:13:45.998Z,102065.47
2023-03-03T06:16:13.013Z,102074.97
2023-03-03T06:18:39.729Z,102084.16
2023-03-03T06:21:06.497Z,102076.97
2023-03-03T06:23:33.483Z,102087.75
2023-03-03T06:26:00.364Z,102083.41
2023-03-03T06:28:27.208Z,102088.88
2023-03-03T06:30:55.183Z,102090.50
2023-03-03T06:33:22.620Z,102089.44
2023-03-03T06:35:54.162Z,102085.25
2023-03-03T06:38:21.020Z,102094.13
2023-03-03T06:40:49.557Z,102100.94
2023-03-03T06:43:17.792Z,102101.31
2023-03-03T06:45:45.709Z,102105.00
2023-03-03T06:48:12.698Z,102106.69
2023-03-03T06:50:39.515Z,102112.38
2023-03-03T06:53:15.908Z,102112.94
2023-03-03T06:55:44.968Z,102121.00
2023-03-03T06:58:16.682Z,102118.81
2023-03-03T07:00:45.484Z,102122.59
2023-03-03T07:03:19.912Z,102133.34
2023-03-03T07:05:46.735Z,102133.84
2023-03-03T07:08:18.228Z,102132.25
2023-03-03T07:10:46.653Z,102133.66
2023-03-03T07:13:20.944Z,102138.63
2023-03-03T07:15:49.958Z,102149.28
2023-03-03T07:18:41.456Z,102157.19
2023-03-03T07:21:16.939Z,102161.78
2023-03-03T07:23:52.839Z,102161.63
2023-03-03T07:26:23.251Z,102169.28
2023-03-03T07:29:02.659Z,102164.94
2023-03-03T07:31:34.327Z,102162.00
2023-03-03T07:34:02.133Z,102163.97
2023-03-03T07:36:38.024Z,102169.56
2023-03-03T07:39:25.294Z,102163.72
2023-03-03T07:42:01.356Z,102174.00
2023-03-03T07:44:38.189Z,102176.72
2023-03-03T07:47:21.147Z,102175.06
2023-03-03T07:49:49.792Z,102186.66
2023-03-03T07:52:43.899Z,102188.72
2023-03-03T07:55:33.475Z,102195.34
2023-03-03T07:58:16.447Z,102196.34
2023-03-03T08:00:47.339Z,102196.78
2023-03-03T08:03:19.911Z,102197.34
2023-03-03T08:05:50.866Z,102196.63
2023-03-03T08:08:30.639Z,102202.50
2023-03-03T08:10:59.107Z,102195.19
2023-03-03T08:13:37.798Z,102199.91
2023-03-03T08:16:25.589Z,102207.59
2023-03-03T08:18:56.721Z,102212.38
2023-03-03T08:21:24.986Z,102215.75
2023-03-03T08:23:53.607Z,102208.19
2023-03-03T08:26:21.915Z,102213.41
2023-03-03T08:28:48.862Z,102205.56
2023-03-03T08:31:28.043Z,102218.81
2023-03-03T08:34:03.660Z,102202.81
2023-03-03T08:36:33.674Z,102212.78
2023-03-03T08:39:01.582Z,102208.84
2023-03-03T08:41:28.613Z,102221.34
2023-03-03T08:43:57.053Z,102210.88
2023-03-03T08:46:23.857Z,102214.63
2023-03-03T08:48:51.449Z,102234.03
2023-03-03T08:51:18.343Z,102229.91
2023-03-03T08:53:45.401Z,102222.19
2023-03-03T08:56:14.634Z,102246.56
2023-03-03T08:59:01.335Z,102239.13
2023-03-03T09:01:29.605Z,102237.03
2023-03-03T09:03:56.891Z,102248.25
2023-03-03T09:06:23.842Z,102233.16
2023-03-03T09:08:50.662Z,102250.69
2023-03-03T09:11:27.858Z,102247.38
2023-03-03T09:14:02.747Z,102239.13
2023-03-03T09:16:37.146Z,102243.19
2023-03-03T09:19:23.584Z,102252.28
2023-03-03T09:21:57.694Z,102249.72
2023-03-03T09:24:36.256Z,102259.31
2023-03-03T09:27:03.268Z,102255.78
2023-03-03T09:29:31.961Z,102263.47
2023-03-03T09:32:02.310Z,102254.34
2023-03-03T09:34:42.429Z,102265.19
2023-03-03T09:37:40.516Z,102268.44
2023-03-03T09:40:26.933Z,102264.63
2023-03-03T09:43:05.441Z,102253.41
2023-03-03T09:46:07.801Z,102266.13
2023-03-03T09:48:48.812Z,102265.59
2023-03-03T09:51:39.538Z,102263.53
2023-03-03T09:54:13.714Z,102265.84
2023-03-03T09:56:59.101Z,102259.97
2023-03-03T09:59:50.480Z,102259.56
2023-03-03T10:02:56.778Z,102278.56
2023-03-03T10:05:32.918Z,102262.09
2023-03-03T10:08:08.917Z,102282.94
2023-03-03T10:11:00.211Z,102277.44
2023-03-03T10:13:53.978Z,102282.34
2023-03-03T10:16:41.627Z,102278.94
2023-03-03T10:19:38.844Z,102285.38
2023-03-03T10:22:31.814Z,102284.38
2023-03-03T10:24:58.931Z,102289.78
2023-03-03T10:27:53.598Z,102292.69
2023-03-03T10:30:39.938Z,102285.84
2023-03-03T10:33:27.222Z,102289.28
2023-03-03T10:36:38.136Z,102288.34
2023-03-03T10:39:21.047Z,102287.78
2023-03-03T10:42:14.404Z,102284.13
2023-03-03T10:45:20.032Z,102288.88
2023-03-03T10:47:59.210Z,102284.47
2023-03-03T10:50:30.249Z,102279.69
2023-03-03T10:53:11.127Z,102289.22
2023-03-03T10:56:00.909Z,102279.19
2023-03-03T10:58:33.832Z,102279.09
2023-03-03T11:01:04.161Z,102284.28
2023-03-03T11:03:50.016Z,102280.13
2023-03-03T11:06:22.437Z,102281.84
2023-03-03T11:08:58.767Z,102278.47
2023-03-03T11:11:29.879Z,102281.78
2023-03-03T11:14:06.051Z,102285.13
2023-03-03T11:17:01.419Z,102283.00
2023-03-03T11:19:32.403Z,102286.50
2023-03-03T11:22:14.876Z,102286.84
2023-03-03T11:25:03.036Z,102295.16
2023-03-03T11:27:38.836Z,102288.22
2023-03-03T11:30:30.369Z,102289.84
2023-03-03T11:33:01.151Z,102290.41
2023-03-03T11:36:05.808Z,102288.56
2023-03-03T11:38:58.335Z,102280.97
2023-03-03T11:41:43.424Z,102278.03
2023-03-03T11:44:14.166Z,102272.91
2023-03-03T11:47:12.781Z,102267.31
2023-03-03T11:49:51.100Z,102272.78
2023-03-03T11:52:49.381Z,102265.63
2023-03-03T11:55:22.591Z,102276.97
2023-03-03T11:58:08.950Z,102259.88
2023-03-03T12:01:03.995Z,102263.06
2023-03-03T12:03:40.102Z,102253.47
2023-03-03T12:06:14.188Z,102252.75
2023-03-03T12:09:08.718Z,102262.69
2023-03-03T12:11:59.967Z,102257.66
2023-03-03T12:14:45.554Z,102256.25
2023-03-03T12:17:40.408Z,102251.44
2023-03-03T12:20:29.298Z,102249.41
2023-03-03T12:23:13.022Z,102235.91
2023-03-03T12:26:08.429Z,102236.44
2023-03-03T12:28:38.613Z,102247.31
2023-03-03T12:31:26.860Z,102248.63
2023-03-03T12:34:15.294Z,102239.63
2023-03-03T12:36:51.327Z,102234.09
2023-03-03T12:39:48.527Z,102232.13
2023-03-03T12:42:35.490Z,102231.81
2023-03-03T12:45:13.155Z,102241.09
2023-03-03T12:47:46.707Z,102223.91
2023-03-03T12:50:28.677Z,102228.63
2023-03-03T12:53:10.907Z,102215.22
2023-03-03T12:55:53.863Z,102233.34
2023-03-03T12:58:47.058Z,102233.72
2023-03-03T13:01:34.109Z,102226.44
2023-03-03T13:04:23.940Z,102229.97
2023-03-03T13:07:04.225Z,102227.63
2023-03-03T13:09:43.227Z,102227.66
2023-03-03T13:12:40.690Z,102217.31
2023-03-03T13:15:17.185Z,102213.16
2023-03-03T13:17:49.464Z,102214.13
2023-03-03T13:20:25.441Z,102204.53
2023-03-03T13:22:57.483Z,102192.66
2023-03-03T13:25:44.167Z,102205.69
2023-03-03T13:28:34.985Z,102202.97
2023-03-03T13:31:09.830Z,102195.50
2023-03-03T13:33:37.343Z,102187.53
2023-03-03T13:36:09.507Z,102197.00
2023-03-03T13:38:51.691Z,102191.34
2023-03-03T13:41:21.548Z,102200.09
2023-03-03T13:44:21.270Z,102195.34
2023-03-03T13:46:57.349Z,102201.81
2023-03-03T13:49:42.539Z,102197.28
2023-03-03T13:52:12.265Z,102188.69
2023-03-03T13:54:58.149Z,102186.16
2023-03-03T13:57:52.545Z,102184.34
2023-03-03T14:00:39.184Z,102195.03
2023-03-03T14:03:15.642Z,102183.50
2023-03-03T14:05:50.223Z,102176.53
2023-03-03T14:08:48.202Z,102189.53
2023-03-03T14:11:26.646Z,102186.56
2023-03-03T14:14:05.731Z,102180.50
2023-03-03T14:16:45.256Z,102186.78
2023-03-03T14:19:17.464Z,102180.69
2023-03-03T14:21:52.496Z,102174.59
2023-03-03T14:24:25.396Z,102176.53
2023-03-03T14:27:00.231Z,102170.31
2023-03-03T14:29:29.835Z,102173.63
2023-03-03T14:32:01.700Z,102173.31
2023-03-03T14:34:41.853Z,102163.84
2023-03-03T14:37:25.285Z,102180.63
2023-03-03T14:40:37.142Z,102168.44
2023-03-03T14:43:20.728Z,102170.97
2023-03-03T14:45:48.006Z,102162.22
2023-03-03T14:48:28.065Z,102174.97
2023-03-03T14:51:23.454Z,102167.91
2023-03-03T14:53:50.568Z,102164.63
2023-03-03T14:56:33.810Z,102160.44
2023-03-03T14:59:19.764Z,102163.59
2023-03-03T15:01:46.680Z,102161.97
2023-03-03T15:04:16.311Z,102164.16
2023-03-03T15:06:46.928Z,102163.56
2023-03-03T15:09:37.480Z,102155.38
2023-03-03T15:12:33.761Z,102159.84
2023-03-03T15:15:08.901Z,102160.69
2023-03-03T15:17:50.306Z,102153.38
2023-03-03T15:20:25.296Z,102150.94
2023-03-03T15:23:22.180Z,102146.06
2023-03-03T15:26:07.172Z,102144.38
2023-03-03T15:28:59.457Z,102144.41
2023-03-03T15:31:52.333Z,102135.25
2023-03-03T15:34:30.384Z,102137.16
2023-03-03T15:37:22.728Z,102135.53
2023-03-03T15:40:14.039Z,102131.97
2023-03-03T15:43:02.677Z,102130.66
2023-03-03T15:45:33.839Z,102130.94
2023-03-03T15:48:36.112Z,102139.88
2023-03-03T15:52:02.532Z,102140.09
2023-03-03T15:54:46.021Z,102137.91
2023-03-03T15:57:25.060Z,102134.41
2023-03-03T15:59:59.130Z,102129.81
2023-03-03T16:02:50.601Z,102136.63
2023-03-03T16:05:25.705Z,102136.06
2023-03-03T16:08:00.779Z,102126.34
2023-03-03T16:10:39.672Z,102130.13
2023-03-03T16:13:35.615Z,102131.75
2023-03-03T16:16:13.890Z,102125.53
2023-03-03T16:18:49.696Z,102134.44
2023-03-03T16:21:22.279Z,102133.09
2023-03-03T16:24:32.293Z,102140.13
2023-03-03T16:27:28.256Z,102148.16
2023-03-03T16:30:27.628Z,102149.28
2023-03-03T16:33:16.196Z,102146.03
2023-03-03T16:35:50.502Z,102143.31
2023-03-03T16:38:22.191Z,102144.38
2023-03-03T16:40:57.108Z,102141.72
2023-03-03T16:43:26.829Z,102146.56
2023-03-03T16:45:58.935Z,102143.63
2023-03-03T16:48:46.219Z,102143.91
2023-03-03T16:51:21.089Z,102147.97
2023-03-03T16:53:51.040Z,102144.97
2023-03-03T16:56:25.289Z,102152.75
2023-03-03T16:58:58.091Z,102153.38
2023-03-03T17:01:40.161Z,102153.63
2023-03-03T17:04:32.037Z,102150.13
2023-03-03T17:07:12.932Z,102145.53
2023-03-03T17:09:45.696Z,102163.06
2023-03-03T17:12:21.119Z,102167.94
2023-03-03T17:14:58.235Z,102165.00
2023-03-03T17:17:57.145Z,102161.19
2023-03-03T17:20:36.666Z,102172.81
2023-03-03T17:23:20.011Z,102172.53
2023-03-03T17:26:11.771Z,102170.63
2023-03-03T17:29:23.146Z,102171.44
2023-03-03T17:32:25.077Z,102179.53
2023-03-03T17:35:15.324Z,102179.81
2023-03-03T17:37:48.613Z,102185.19
2023-03-03T17:40:27.984Z,102188.19
2023-03-03T17:43:04.172Z,102189.81
2023-03-03T17:45:35.688Z,102186.00
2023-03-03T17:48:29.037Z,102189.25
2023-03-03T17:51:36.964Z,102193.03
2023-03-03T17:54:12.950Z,102198.19
2023-03-03T17:56:58.558Z,102197.34
2023-03-03T17:59:52.562Z,102197.09
2023-03-03T18:02:38.801Z,102204.66
2023-03-03T18:05:42.928Z,102206.56
2023-03-03T18:08:37.804Z,102201.94
2023-03-03T18:11:10.833Z,102207.63
2023-03-03T18:14:14.353Z,102206.56
2023-03-03T18:17:02.935Z,102221.97
2023-03-03T18:20:03.897Z,102222.28
2023-03-03T18:22:53.172Z,102222.25
2023-03-03T18:25:23.329Z,102210.34
2023-03-03T18:28:02.092Z,102219.50
2023-03-03T18:30:55.473Z,102222.22
2023-03-03T18:33:43.019Z,102219.78
2023-03-03T18:36:32.886Z,102223.31
2023-03-03T18:39:01.616Z,102230.38
2023-03-03T18:41:30.412Z,102221.16
2023-03-03T18:44:29.835Z,102217.88
2023-03-03T18:46:58.890Z,102217.38
2023-03-03T18:49:50.111Z,102227.38
2023-03-03T18:52:23.066Z,102227.38
2023-03-03T18:55:13.116Z,102224.94
2023-03-03T18:57:40.020Z,102220.06
2023-03-03T19:00:33.921Z,102217.13
2023-03-03T19:03:01.306Z,102213.63
2023-03-03T19:05:35.267Z,102219.56
2023-03-03T19:08:23.454Z,102218.22
2023-03-03T19:11:03.403Z,102221.44
2023-03-03T19:13:33.184Z,102218.22
2023-03-03T19:16:26.114Z,102225.00
2023-03-03T19:18:52.973Z,102222.03
2023-03-03T19:21:28.352Z,102221.75
2023-03-03T19:24:03.609Z,102220.13
2023-03-03T19:26:58.055Z,102229.03
2023-03-03T19:29:46.845Z,102224.19
2023-03-03T19:32:38.380Z,102224.44
2023-03-03T19:35:33.140Z,102218.75
2023-03-03T19:38:20.374Z,102228.50
2023-03-03T19:41:12.500Z,102223.09
2023-03-03T19:43:54.723Z,102230.66
2023-03-03T19:46:46.263Z,102229.31
2023-03-03T19:49:41.116Z,102231.47
2023-03-03T19:52:14.846Z,102223.66
2023-03-03T19:54:46.386Z,102236.09
2023-03-03T19:57:34.786Z,102240.41
2023-03-03T20:00:26.085Z,102237.97
2023-03-03T20:03:02.868Z,102235.81
2023-03-03T20:05:35.056Z,102243.13
2023-03-03T20:08:29.977Z,102241.22
2023-03-03T20:11:05.713Z,102248.53
2023-03-03T20:13:50.846Z,102250.13
2023-03-03T20:16:37.744Z,102251.47
2023-03-03T20:19:07.611Z,102250.41
2023-03-03T20:21:42.716Z,102252.03
2023-03-03T20:24:31.110Z,102256.38
2023-03-03T20:27:05.485Z,102251.22
2023-03-03T20:29:44.692Z,102262.88
2023-03-03T20:32:36.580Z,102268.53
2023-03-03T20:35:16.507Z,102265.84
2023-03-03T20:37:53.998Z,102273.69
2023-03-03T20:40:54.438Z,102277.19
2023-03-03T20:43:26.320Z,102274.50
2023-03-03T20:45:59.186Z,102265.28
2023-03-03T20:48:48.150Z,102268.53
2023-03-03T20:51:25.257Z,102263.66
2023-03-03T20:54:07.311Z,102266.91
2023-03-03T20:57:15.887Z,102278.81
2023-03-03T21:00:03.117Z,102278.00
2023-03-03T21:02:35.946Z,102285.03
2023-03-03T21:05:16.067Z,102283.94
2023-03-03T21:08:07.154Z,102284.25
2023-03-03T21:10:36.484Z,102287.47
2023-03-03T21:13:40.982Z,102287.19
2023-03-03T21:16:20.264Z,102285.56
2023-03-03T21:19:04.492Z,102288.56
2023-03-03T21:21:37.201Z,102290.72
2023-03-03T21:24:04.519Z,102285.00
2023-03-03T21:26:50.278Z,102293.44
2023-03-03T21:29:34.591Z,102282.03
2023-03-03T21:32:07.848Z,102296.66
2023-03-03T21:34:39.875Z,102293.97
2023-03-03T21:37:08.200Z,102294.53
2023-03-03T21:39:46.974Z,102298.03
2023-03-03T21:42:16.271Z,102300.69
2023-03-03T21:44:46.640Z,102306.94
2023-03-03T21:47:16.268Z,102301.09
2023-03-03T21:49:44.203Z,102301.25
2023-03-03T21:52:12.852Z,102310.19
2023-03-03T21:54:40.682Z,102306.88
2023-03-03T21:57:07.508Z,102307.47
2023-03-03T21:59:34.268Z,102308.03
2023-03-03T22:02:01.462Z,102304.50
2023-03-03T22:04:28.661Z,102302.34
2023-03-03T22:06:56.151Z,102296.94
2023-03-03T22:09:23.733Z,102299.09
2023-03-03T22:11:50.924Z,102307.22
2023-03-03T22:14:18.254Z,102294.50
2023-03-03T22:16:45.647Z,102302.06
2023-03-03T22:19:12.501Z,102295.03
2023-03-03T22:21:39.932Z,102302.88
2023-03-03T22:24:07.447Z,102302.34
2023-03-03T22:26:35.051Z,102294.25
2023-03-03T22:29:02.324Z,102304.00
2023-03-03T22:31:29.151Z,102295.84
2023-03-03T22:33:56.106Z,102304.22
2023-03-03T22:36:22.987Z,102304.47
2023-03-03T22:38:50.020Z,102302.59
2023-03-03T22:41:17.455Z,102298.03
2023-03-03T22:43:45.007Z,102296.38
2023-03-03T22:46:12.067Z,102299.91
2023-03-03T22:48:39.631Z,102289.03
2023-03-03T22:51:06.829Z,102301.00
2023-03-03T22:53:34.088Z,102295.84
2023-03-03T22:56:01.462Z,102300.69
2023-03-03T22:58:29.484Z,102299.38
2023-03-03T23:00:56.339Z,102280.72
2023-03-03T23:03:23.725Z,102298.03
2023-03-03T23:05:51.941Z,102288.53
2023-03-03T23:08:26.497Z,102302.34
2023-03-03T23:10:56.231Z,102293.41
2023-03-03T23:13:25.281Z,102282.03
2023-03-03T23:15:52.267Z,102293.94
2023-03-03T23:18:19.082Z,102295.88
2023-03-03T23:20:51.088Z,102296.41
2023-03-03T23:23:20.663Z,102283.69
2023-03-03T23:25:47.678Z,102290.16
2023-03-03T23:28:15.684Z,102290.69
2023-03-03T23:30:43.012Z,102294.72
2023-03-03T23:33:09.834Z,102291.53
2023-03-03T23:35:44.404Z,102295.03
2023-03-03T23:38:15.459Z,102307.47
2023-03-03T23:40:44.777Z,102295.75
2023-03-03T23:43:11.738Z,102294.97
2023-03-03T23:45:38.625Z,102297.44
2023-03-03T23:48:06.054Z,102296.59
2023-03-03T23:50:34.158Z,102303.31
2023-03-03T23:53:00.788Z,102295.84
2023-03-03T23:55:27.601Z,102300.13
2023-03-03T23:57:54.421Z,102298.16
